Time;durP1;ratioP1;P1;durP2;ratioP2;P2;SDS_P1;SDS_P2;PMS_P1;PMS_P2;Temp;Humidity;BMP_temperature;BMP_pressure;BME280_temperature;BME280_humidity;BME280_pressure;Samples;Min_cycle;Max_cycle;Signal;HPM_P1;HPM_P2
2021/12/18 00:01:36;;;;;;;17.45;5.50;;;;;;;1.05;100.00;100401.53;4317030;33;20037;-72
2021/12/18 00:04:03;;;;;;;22.17;5.05;;;;;;;0.84;100.00;100371.84;4317066;33;20020;-72
2021/12/18 00:06:30;;;;;;;26.58;7.40;;;;;;;1.12;100.00;100408.84;4317028;33;20025;-72
2021/12/18 00:08:58;;;;;;;17.92;4.55;;;;;;;1.09;100.00;100405.53;4317043;33;20168;-72
2021/12/18 00:11:25;;;;;;;21.60;5.18;;;;;;;1.04;100.00;100413.13;4326706;33;20083;-72
2021/12/18 00:13:52;;;;;;;16.17;5.60;;;;;;;1.02;100.00;100428.38;4316954;33;20107;-71
2021/12/18 00:16:18;;;;;;;18.48;5.03;;;;;;;0.75;100.00;100380.72;4315300;33;20040;-72
2021/12/18 00:18:48;;;;;;;21.23;5.47;;;;;;;1.02;100.00;100436.31;4316939;33;20382;-72
2021/12/18 00:21:17;;;;;;;16.00;4.50;;;;;;;1.02;100.00;100425.72;4316892;33;20040;-72
2021/12/18 00:23:44;;;;;;;17.05;4.10;;;;;;;1.01;100.00;100455.88;4316761;33;20419;-72
2021/12/18 00:26:11;;;;;;;15.50;5.00;;;;;;;1.01;100.00;100466.47;4314395;33;20041;-72
2021/12/18 00:28:37;;;;;;;18.33;6.53;;;;;;;0.72;100.00;100403.09;4316837;33;20139;-71
2021/12/18 00:31:05;;;;;;;22.65;5.40;;;;;;;1.02;100.00;100433.69;4315724;33;20037;-72
2021/12/18 00:33:32;;;;;;;16.65;5.00;;;;;;;0.75;100.00;100386.00;4316588;33;20410;-72
2021/12/18 00:35:59;;;;;;;17.67;4.60;;;;;;;1.07;100.00;100444.66;4313638;33;20058;-72
2021/12/18 00:38:29;;;;;;;25.20;5.40;;;;;;;0.76;100.00;100377.91;4316590;33;20037;-71
2021/12/18 00:41:34;;;;;;;23.52;5.35;;;;;;;0.74;100.00;100389.69;4316181;33;20013;-72
2021/12/18 00:44:02;;;;;;;17.15;4.93;;;;;;;1.11;100.00;100439.03;4316854;33;20078;-72
2021/12/18 00:46:38;;;;;;;17.40;5.62;;;;;;;1.04;100.00;100433.53;4315568;33;20026;-71
2021/12/18 00:49:06;;;;;;;18.55;5.82;;;;;;;1.00;100.00;100454.19;4316494;33;20055;-72
2021/12/18 00:51:40;;;;;;;15.80;5.30;;;;;;;1.01;100.00;100437.31;4316501;33;20431;-72
2021/12/18 00:54:06;;;;;;;19.33;5.07;;;;;;;1.08;100.00;100467.53;4316335;33;20045;-72
2021/12/18 00:56:33;;;;;;;13.82;4.87;;;;;;;1.08;100.00;100472.00;4315121;33;20058;-71
2021/12/18 00:59:00;;;;;;;23.55;5.40;;;;;;;1.03;100.00;100469.81;4316117;33;20058;-71
2021/12/18 01:01:28;;;;;;;17.20;5.35;;;;;;;0.80;100.00;100431.47;4315140;33;20157;-71
2021/12/18 01:03:55;;;;;;;19.08;5.07;;;;;;;1.03;100.00;100459.19;4316272;33;20037;-71
2021/12/18 01:06:23;;;;;;;16.08;4.32;;;;;;;0.58;100.00;100401.78;4314726;33;20073;-71
2021/12/18 01:08:53;;;;;;;16.60;4.78;;;;;;;0.87;100.00;100443.16;4314603;33;20044;-72
2021/12/18 01:16:49;;;;;;;17.80;4.85;;;;;;;1.11;100.00;100476.19;4316195;33;20013;-71
2021/12/18 01:24:32;;;;;;;11.43;4.20;;;;;;;1.07;100.00;100444.66;4315681;33;20071;-72
2021/12/18 01:26:58;;;;;;;12.75;4.45;;;;;;;0.88;100.00;100407.69;4314817;33;20037;-72
2021/12/18 01:29:25;;;;;;;15.13;4.97;;;;;;;0.87;100.00;100406.03;4316029;33;20063;-71
2021/12/18 01:31:52;;;;;;;17.52;5.07;;;;;;;0.94;100.00;100432.75;4316110;33;20197;-73
2021/12/18 01:34:18;;;;;;;16.70;4.93;;;;;;;1.05;100.00;100440.47;4315893;33;20135;-73
2021/12/18 01:36:45;;;;;;;15.27;5.07;;;;;;;0.91;100.00;100418.00;4315880;33;20059;-73
2021/12/18 01:39:11;;;;;;;19.70;5.22;;;;;;;0.82;100.00;100418.91;4315923;33;20028;-70
2021/12/18 01:42:05;;;;;;;18.83;5.37;;;;;;;1.03;100.00;100445.09;4302806;33;20103;-71
2021/12/18 01:52:53;;;;;;;23.52;5.03;;;;;;;0.78;100.00;100412.22;4315951;33;20043;-71
2021/12/18 01:55:25;;;;;;;14.32;5.45;;;;;;;1.00;100.00;100438.28;4314944;33;20040;-72
2021/12/18 01:57:52;;;;;;;18.10;4.18;;;;;;;0.77;100.00;100400.81;4315797;33;20039;-73
2021/12/18 02:00:21;;;;;;;14.38;4.37;;;;;;;0.58;100.00;100379.75;4315178;33;20037;-73
2021/12/18 02:02:49;;;;;;;13.80;4.37;;;;;;;1.04;100.00;100460.87;4315407;33;20342;-76
2021/12/18 02:05:15;;;;;;;18.95;4.65;;;;;;;0.76;100.00;100420.34;4314360;33;20033;-72
2021/12/18 02:07:42;;;;;;;16.83;4.47;;;;;;;1.00;100.00;100475.41;4314832;33;20036;-73
2021/12/18 02:10:18;;;;;;;10.68;4.30;;;;;;;1.02;100.00;100468.16;4315707;33;20088;-73
2021/12/18 02:21:06;;;;;;;21.60;4.95;;;;;;;0.82;100.00;100440.13;4315718;33;20133;-73
2021/12/18 02:23:40;;;;;;;16.62;5.25;;;;;;;1.00;100.00;100464.81;4315708;33;20040;-73
2021/12/18 02:26:07;;;;;;;12.30;5.43;;;;;;;1.03;100.00;100464.50;4310164;33;20058;-72
2021/12/18 02:28:34;;;;;;;22.17;5.40;;;;;;;0.72;100.00;100417.16;4314885;33;20354;-73
2021/12/18 02:31:01;;;;;;;19.98;5.25;;;;;;;0.70;100.00;100392.63;4315603;33;20386;-72
2021/12/18 02:33:28;;;;;;;15.07;5.10;;;;;;;1.00;100.00;100454.19;4314524;33;20062;-73
2021/12/18 02:35:58;;;;;;;17.15;6.53;;;;;;;0.77;100.00;100414.06;4315589;33;20066;-73
2021/12/18 02:43:59;;;;;;;22.73;5.30;;;;;;;1.07;100.00;100451.78;4315562;33;20041;-73
2021/12/18 02:46:26;;;;;;;9.02;4.87;;;;;;;1.00;100.00;100456.84;4315476;33;20041;-73
2021/12/18 02:48:55;;;;;;;16.92;5.22;;;;;;;0.93;100.00;100447.84;4315488;33;20037;-73
2021/12/18 02:51:22;;;;;;;15.32;5.28;;;;;;;0.58;100.00;100388.53;4315245;33;20465;-73
2021/12/18 02:53:53;;;;;;;10.48;4.47;;;;;;;0.80;100.00;100424.38;4314455;33;20339;-72
2021/12/18 02:56:23;;;;;;;16.35;5.45;;;;;;;0.96;100.00;100447.53;4316207;33;20008;-72
2021/12/18 02:58:56;;;;;;;25.02;5.45;;;;;;;0.98;100.00;100450.87;4317736;33;20033;-72
2021/12/18 03:01:25;;;;;;;12.23;4.87;;;;;;;1.00;100.00;100443.59;4318801;33;20281;-73
2021/12/18 03:03:53;;;;;;;14.00;4.45;;;;;;;1.02;100.00;100456.69;4318044;33;20036;-73
2021/12/18 03:25:03;;;;;;;15.50;4.95;;;;;;;0.97;100.00;100433.28;4317731;33;20319;-73
2021/12/18 03:27:30;;;;;;;10.80;4.68;;;;;;;0.94;100.00;100438.88;4317713;33;20042;-73
2021/12/18 03:29:57;;;;;;;25.85;5.68;;;;;;;0.91;100.00;100431.25;4317536;33;20482;-73
2021/12/18 03:32:24;;;;;;;11.07;5.15;;;;;;;0.92;100.00;100435.56;4316394;33;20054;-73
2021/12/18 03:34:52;;;;;;;9.40;5.22;;;;;;;0.95;100.00;100429.94;4317594;33;20427;-73
2021/12/18 03:37:20;;;;;;;25.12;4.60;;;;;;;0.92;100.00;100438.22;4316399;33;20054;-73
2021/12/18 03:39:47;;;;;;;14.25;5.07;;;;;;;0.93;100.00;100428.47;4302802;33;20054;-73
2021/12/18 03:42:21;;;;;;;15.80;5.62;;;;;;;0.93;100.00;100431.94;4317482;33;20017;-74
2021/12/18 03:44:48;;;;;;;25.30;5.87;;;;;;;0.61;100.00;100377.62;4304269;33;20066;-74
2021/12/18 03:47:14;;;;;;;17.33;5.00;;;;;;;0.64;100.00;100389.72;4317301;33;20037;-74
2021/12/18 03:49:41;;;;;;;18.10;5.53;;;;;;;0.90;100.00;100433.06;4317364;33;20041;-74
2021/12/18 03:52:08;;;;;;;14.60;5.00;;;;;;;0.59;100.00;100379.59;4304141;33;20029;-74
2021/12/18 03:54:34;;;;;;;18.10;4.20;;;;;;;0.89;100.00;100433.22;4304131;33;20032;-74
2021/12/18 03:57:01;;;;;;;12.77;4.90;;;;;;;0.62;100.00;100392.53;4317263;33;20067;-74
2021/12/18 03:59:28;;;;;;;17.67;4.75;;;;;;;0.85;100.00;100429.22;4304131;33;20152;-73
2021/12/18 04:01:54;;;;;;;11.10;3.05;;;;;;;0.84;100.00;100411.62;4316071;33;20029;-72
2021/12/18 04:04:21;;;;;;;10.85;3.28;;;;;;;0.76;100.00;100408.91;4317162;33;20037;-72
2021/12/18 04:06:48;;;;;;;14.13;3.33;;;;;;;0.58;100.00;100379.75;4316312;33;20200;-73
2021/12/18 04:09:15;;;;;;;12.93;3.20;;;;;;;0.52;100.00;100375.87;4316379;33;20033;-73
2021/12/18 04:11:42;;;;;;;12.50;3.70;;;;;;;0.84;100.00;100427.53;4304018;33;20400;-73
2021/12/18 04:14:11;;;;;;;10.20;3.95;;;;;;;0.73;100.00;100404.72;4316906;33;20066;-73
2021/12/18 04:16:37;;;;;;;8.85;2.87;;;;;;;0.76;100.00;100408.91;4316893;33;20162;-73
2021/12/18 04:19:05;;;;;;;8.68;3.33;;;;;;;0.59;100.00;100371.66;4317110;33;20387;-73
2021/12/18 04:21:33;;;;;;;11.88;3.50;;;;;;;0.78;100.00;100413.06;4316882;33;20092;-73
2021/12/18 04:24:03;;;;;;;9.43;3.40;;;;;;;0.80;100.00;100420.84;4316807;33;20045;-73
2021/12/18 04:26:32;;;;;;;10.07;3.40;;;;;;;0.84;100.00;100411.62;4316880;33;20055;-73
2021/12/18 04:28:58;;;;;;;8.88;2.55;;;;;;;0.78;100.00;100414.88;4316828;33;20438;-73
2021/12/18 04:31:25;;;;;;;14.00;2.80;;;;;;;0.79;100.00;100414.72;4315351;33;20071;-73
2021/12/18 04:33:52;;;;;;;10.43;3.05;;;;;;;0.79;100.00;100413.91;4316507;33;20058;-73
2021/12/18 04:36:19;;;;;;;13.00;3.58;;;;;;;0.65;100.00;100402.00;4316692;33;20067;-73
2021/12/18 04:38:45;;;;;;;8.73;4.22;;;;;;;0.54;100.00;100374.75;4316638;33;20074;-73
2021/12/18 04:41:20;;;;;;;10.10;3.28;;;;;;;0.74;100.00;100397.63;4316676;33;20033;-73
2021/12/18 04:43:46;;;;;;;10.40;4.00;;;;;;;0.74;100.00;100389.69;4316583;33;20008;-73
2021/12/18 04:46:14;;;;;;;8.68;4.00;;;;;;;0.43;100.00;100363.53;4316456;33;20045;-73
2021/12/18 04:48:40;;;;;;;4.87;3.17;;;;;;;0.67;100.00;100392.94;4303163;33;20040;-73
2021/12/18 04:51:07;;;;;;;11.57;4.15;;;;;;;0.28;100.00;100300.47;4315227;33;20366;-73
2021/12/18 04:53:33;;;;;;;10.07;3.22;;;;;;;0.75;100.00;100392.19;4316353;33;20036;-73
2021/12/18 04:56:00;;;;;;;11.57;3.67;;;;;;;0.71;100.00;100375.72;4316347;33;20029;-73
2021/12/18 04:58:26;;;;;;;9.10;3.15;;;;;;;0.45;100.00;100332.44;4316472;33;20070;-73
2021/12/18 05:00:54;;;;;;;9.27;4.30;;;;;;;0.76;100.00;100393.00;4314990;33;20059;-73
2021/12/18 05:03:21;;;;;;;12.10;3.47;;;;;;;0.68;100.00;100386.63;4316333;33;20024;-73
2021/12/18 05:05:47;;;;;;;6.97;3.53;;;;;;;0.40;100.00;100354.09;4303186;33;20064;-73
2021/12/18 05:08:14;;;;;;;14.57;3.70;;;;;;;0.41;100.00;100352.25;4316184;33;20355;-73
2021/12/18 05:10:41;;;;;;;14.20;4.07;;;;;;;0.70;100.00;100405.88;4316350;33;20048;-73
2021/12/18 05:13:07;;;;;;;8.25;3.58;;;;;;;0.66;100.00;100399.19;4315830;33;20079;-73
2021/12/18 05:15:34;;;;;;;13.68;3.95;;;;;;;0.71;100.00;100396.94;4301488;33;20025;-73
2021/12/18 05:18:00;;;;;;;6.45;3.47;;;;;;;0.68;100.00;100376.03;4314967;33;20055;-73
2021/12/18 05:20:27;;;;;;;9.40;4.20;;;;;;;0.82;100.00;100397.69;4315886;33;20408;-73
2021/12/18 05:22:54;;;;;;;8.35;3.50;;;;;;;0.70;100.00;100400.59;4315489;33;20443;-73
2021/12/18 05:25:20;;;;;;;8.65;3.50;;;;;;;0.78;100.00;100398.97;4315260;33;20390;-73
2021/12/18 05:27:47;;;;;;;11.95;4.32;;;;;;;0.49;100.00;100353.16;4314552;33;20036;-73
2021/12/18 05:30:14;;;;;;;9.77;4.18;;;;;;;0.82;100.00;100413.59;4316146;33;20032;-73
2021/12/18 05:32:40;;;;;;;15.05;5.62;;;;;;;0.74;100.00;100400.28;4315939;33;20468;-72
2021/12/18 05:35:08;;;;;;;8.35;3.53;;;;;;;0.68;100.00;100402.53;4302009;33;20033;-74
2021/12/18 05:37:50;;;;;;;12.50;4.50;;;;;;;0.70;100.00;100411.19;4315965;33;20013;-73
2021/12/18 05:40:20;;;;;;;15.50;4.85;;;;;;;0.71;100.00;100409.34;4316126;33;20042;-74
2021/12/18 05:42:48;;;;;;;21.90;4.68;;;;;;;0.75;100.00;100412.53;4316086;33;20452;-73
2021/12/18 05:45:15;;;;;;;13.98;4.47;;;;;;;0.78;100.00;100417.53;4315825;33;20063;-73
2021/12/18 05:47:43;;;;;;;14.90;3.87;;;;;;;0.77;100.00;100410.59;4314235;33;20032;-73
2021/12/18 05:50:12;;;;;;;9.63;4.50;;;;;;;0.49;100.00;100376.19;4315747;33;20129;-73
2021/12/18 05:52:40;;;;;;;16.85;4.22;;;;;;;0.40;100.00;100358.53;4315726;33;20044;-72
2021/12/18 05:55:08;;;;;;;12.40;4.57;;;;;;;0.69;100.00;100414.81;4314328;33;20045;-73
2021/12/18 05:57:35;;;;;;;12.65;4.40;;;;;;;0.40;100.00;100358.53;4302713;33;20348;-73
2021/12/18 06:00:04;;;;;;;15.55;4.72;;;;;;;0.40;100.00;100366.47;4315591;33;20309;-73
2021/12/18 06:02:30;;;;;;;18.92;5.75;;;;;;;0.57;100.00;100400.09;4315661;33;20029;-73
2021/12/18 06:04:57;;;;;;;13.77;5.45;;;;;;;0.67;100.00;100411.50;4315605;33;20088;-73
2021/12/18 06:07:33;;;;;;;12.02;4.70;;;;;;;0.62;100.00;100413.72;4314379;33;20033;-73
2021/12/18 06:10:00;;;;;;;14.63;4.15;;;;;;;0.53;100.00;100404.06;4315599;33;20031;-73
2021/12/18 06:12:26;;;;;;;15.10;4.55;;;;;;;0.52;100.00;100407.69;4314160;33;20066;-73
2021/12/18 06:14:53;;;;;;;14.68;3.92;;;;;;;0.33;100.00;100353.81;4315506;33;20067;-73
2021/12/18 06:17:20;;;;;;;11.20;4.53;;;;;;;0.31;100.00;100353.16;4315525;33;20371;-73
2021/12/18 06:19:46;;;;;;;17.12;5.32;;;;;;;0.65;100.00;100397.53;4315535;33;20082;-73
2021/12/18 06:22:13;;;;;;;19.15;4.87;;;;;;;0.48;100.00;100374.50;4314464;33;20028;-73
2021/12/18 06:24:40;;;;;;;10.02;4.25;;;;;;;0.31;100.00;100342.56;4314881;33;20037;-73
2021/12/18 06:27:06;;;;;;;12.65;4.87;;;;;;;0.67;100.00;100390.28;4314421;33;20039;-73
2021/12/18 06:29:34;;;;;;;12.18;4.50;;;;;;;0.71;100.00;100388.16;4313826;33;20029;-74
2021/12/18 06:32:01;;;;;;;22.65;6.12;;;;;;;0.64;100.00;100389.72;4315633;33;20457;-73
2021/12/18 06:34:27;;;;;;;18.45;6.85;;;;;;;0.61;100.00;100390.06;4318133;33;20040;-72
2021/12/18 06:36:53;;;;;;;26.02;6.55;;;;;;;0.54;100.00;100395.09;4306555;33;20067;-71
2021/12/18 06:39:21;;;;;;;22.58;6.80;;;;;;;0.61;100.00;100380.28;4302845;33;20055;-72
2021/12/18 06:41:48;;;;;;;24.42;6.72;;;;;;;0.44;100.00;100346.66;4303626;33;20067;-73
2021/12/18 06:44:15;;;;;;;18.90;7.55;;;;;;;0.41;100.00;100336.34;4290512;33;20063;-72
2021/12/18 06:46:42;;;;;;;22.27;7.70;;;;;;;0.51;100.00;100374.19;4301074;33;20033;-73
2021/12/18 06:49:10;;;;;;;15.68;6.87;;;;;;;0.69;100.00;100395.44;4303039;33;20081;-73
2021/12/18 06:51:37;;;;;;;20.30;7.72;;;;;;;0.61;100.00;100380.28;4303505;33;20482;-73
2021/12/18 06:54:04;;;;;;;19.45;6.43;;;;;;;0.66;100.00;100380.66;4302051;33;20436;-73
2021/12/18 06:56:31;;;;;;;14.38;6.30;;;;;;;0.38;100.00;100331.34;4301860;33;20380;-72
2021/12/18 06:58:57;;;;;;;24.08;7.37;;;;;;;0.65;100.00;100370.19;4303507;33;20209;-72
2021/12/18 07:01:25;;;;;;;20.90;6.50;;;;;;;0.66;100.00;100372.69;4303255;33;20041;-73
2021/12/18 07:03:51;;;;;;;15.05;6.35;;;;;;;0.68;100.00;100373.38;4303463;33;20042;-72
2021/12/18 07:06:17;;;;;;;23.17;7.05;;;;;;;0.71;100.00;100354.50;4290340;33;20069;-73
2021/12/18 07:08:45;;;;;;;14.73;6.20;;;;;;;0.63;100.00;100335.87;4303342;33;20037;-73
2021/12/18 07:11:11;;;;;;;19.40;7.80;;;;;;;0.66;100.00;100356.78;4303336;33;20037;-73
2021/12/18 07:13:38;;;;;;;11.10;6.07;;;;;;;0.69;100.00;100348.53;4303172;33;20072;-73
2021/12/18 07:16:05;;;;;;;20.65;7.03;;;;;;;0.70;100.00;100357.31;4288870;33;20063;-73
2021/12/18 07:18:31;;;;;;;20.98;7.70;;;;;;;0.35;100.00;100338.63;4303207;33;20041;-73
2021/12/18 07:20:58;;;;;;;13.23;6.70;;;;;;;0.52;100.00;100366.09;4303227;33;20113;-73
2021/12/18 07:23:25;;;;;;;17.83;7.57;;;;;;;0.54;100.00;100360.66;4301960;33;20352;-73
2021/12/18 07:25:51;;;;;;;14.55;6.95;;;;;;;0.56;100.00;100356.06;4303336;33;20041;-73
2021/12/18 07:28:18;;;;;;;16.35;7.30;;;;;;;0.12;100.00;100300.31;4290088;33;20053;-74
2021/12/18 07:30:45;;;;;;;18.37;7.65;;;;;;;0.21;100.00;100309.16;4301668;33;20432;-75
2021/12/18 07:33:11;;;;;;;14.80;7.57;;;;;;;0.24;100.00;100309.72;4300675;33;20055;-76
2021/12/18 07:35:38;;;;;;;21.67;9.25;;;;;;;0.21;100.00;100315.31;4301285;33;20076;-75
2021/12/18 07:38:06;;;;;;;20.62;7.20;;;;;;;0.15;100.00;100310.63;4289079;33;20025;-75
2021/12/18 07:40:39;;;;;;;14.57;6.90;;;;;;;0.50;100.00;100351.34;4302872;33;20059;-74
2021/12/18 07:43:06;;;;;;;18.52;5.93;;;;;;;0.22;100.00;100305.53;4296836;33;20472;-76
2021/12/18 07:45:34;;;;;;;23.05;6.50;;;;;;;0.31;100.00;100334.59;4316241;33;20058;-75
2021/12/18 07:48:01;;;;;;;17.15;7.12;;;;;;;0.45;100.00;100338.56;4314583;33;20374;-74
2021/12/18 07:50:28;;;;;;;18.10;7.78;;;;;;;0.06;100.00;100299.09;4317535;33;20102;-75
2021/12/18 07:52:55;;;;;;;15.88;6.47;;;;;;;-0.06;100.00;100300.31;4315756;33;20104;-74
2021/12/18 07:55:22;;;;;;;28.25;7.35;;;;;;;-0.18;100.00;100273.19;4302345;33;20036;-73
2021/12/18 07:57:51;;;;;;;15.38;6.32;;;;;;;0.34;100.00;100358.16;4303434;33;20059;-74
2021/12/18 08:00:19;;;;;;;24.55;8.00;;;;;;;0.34;100.00;100363.44;4317195;33;20113;-74
2021/12/18 08:02:45;;;;;;;17.87;5.55;;;;;;;0.27;100.00;100341.22;4304044;33;20301;-74
2021/12/18 08:05:14;;;;;;;17.10;6.50;;;;;;;0.30;100.00;100355.94;4316808;33;20041;-74
2021/12/18 08:07:41;;;;;;;21.92;8.27;;;;;;;0.25;100.00;100353.75;4302279;33;20037;-74
2021/12/18 08:10:08;;;;;;;11.05;5.90;;;;;;;0.28;100.00;100357.94;4315234;33;20106;-74
2021/12/18 08:12:35;;;;;;;29.45;8.40;;;;;;;-0.13;100.00;100323.88;4316175;33;20359;-78
2021/12/18 08:15:03;;;;;;;34.10;8.63;;;;;;;-0.18;100.00;100320.84;4310661;33;20344;-75
2021/12/18 08:17:30;;;;;;;18.92;7.57;;;;;;;-0.16;100.00;100308.31;4301012;33;20045;-76
2021/12/18 08:19:57;;;;;;;24.83;8.23;;;;;;;-0.14;100.00;100316.09;4288393;33;20064;-76
2021/12/18 08:22:24;;;;;;;20.08;9.05;;;;;;;-0.12;100.00;100333.50;4287614;33;20026;-77
2021/12/18 08:24:51;;;;;;;20.20;6.85;;;;;;;0.07;100.00;100366.16;4300105;33;20034;-76
2021/12/18 08:27:18;;;;;;;19.48;7.20;;;;;;;0.02;100.00;100373.69;4312036;33;20204;-76
2021/12/18 08:29:44;;;;;;;14.93;7.07;;;;;;;-0.03;100.00;100377.62;4311536;33;20021;-76
2021/12/18 08:32:12;;;;;;;17.12;7.10;;;;;;;0.03;100.00;100378.00;4300160;33;20416;-75
2021/12/18 08:34:38;;;;;;;24.37;8.93;;;;;;;0.10;100.00;100373.81;4301584;33;20063;-75
2021/12/18 08:37:05;;;;;;;25.12;8.45;;;;;;;-0.22;100.00;100336.22;4311350;33;20359;-75
2021/12/18 08:39:32;;;;;;;32.00;7.78;;;;;;;0.06;100.00;100390.97;4300589;33;20152;-76
2021/12/18 08:42:03;;;;;;;37.85;9.50;;;;;;;0.05;100.00;100384.00;4299522;33;20059;-76
2021/12/18 08:44:30;;;;;;;19.15;7.95;;;;;;;0.04;100.00;100424.72;4301067;33;20037;-75
2021/12/18 08:46:57;;;;;;;29.58;11.43;;;;;;;-0.27;100.00;100354.34;4300510;33;20422;-77
2021/12/18 08:49:25;;;;;;;26.20;10.10;;;;;;;0.01;100.00;100398.53;4300717;33;20072;-76
2021/12/18 08:51:55;;;;;;;18.33;8.00;;;;;;;-0.02;100.00;100395.19;4310830;33;20030;-76
2021/12/18 08:54:23;;;;;;;21.98;10.75;;;;;;;-0.05;100.00;100379.59;4300634;33;20404;-76
2021/12/18 08:56:50;;;;;;;27.87;9.40;;;;;;;-0.07;100.00;100370.94;4301384;33;20045;-75
2021/12/18 08:59:16;;;;;;;22.60;10.43;;;;;;;-0.42;100.00;100297.59;4301520;33;20044;-75
2021/12/18 09:01:43;;;;;;;26.58;9.82;;;;;;;-0.03;100.00;100366.22;4300377;33;20025;-75
2021/12/18 09:04:09;;;;;;;25.80;8.95;;;;;;;-0.04;100.00;100362.72;4301113;33;20045;-76
2021/12/18 09:06:36;;;;;;;25.30;12.50;;;;;;;-0.38;100.00;100305.09;4299147;33;20367;-75
2021/12/18 09:09:03;;;;;;;20.70;8.63;;;;;;;-0.11;100.00;100352.84;4300897;33;20075;-76
2021/12/18 09:11:30;;;;;;;31.52;11.88;;;;;;;-0.04;100.00;100354.78;4300605;33;20049;-75
2021/12/18 09:13:57;;;;;;;27.60;9.27;;;;;;;-0.29;100.00;100321.06;4300769;33;20079;-76
2021/12/18 09:16:23;;;;;;;32.78;9.98;;;;;;;0.10;100.00;100363.22;4299318;33;20383;-76
2021/12/18 09:18:50;;;;;;;28.73;9.07;;;;;;;-0.12;100.00;100309.66;4299614;33;20378;-74
2021/12/18 09:21:16;;;;;;;33.30;10.50;;;;;;;-0.02;100.00;100323.69;4299997;33;20055;-74
2021/12/18 09:23:43;;;;;;;31.15;12.18;;;;;;;0.01;100.00;100335.78;4300071;33;20029;-75
2021/12/18 09:26:10;;;;;;;29.27;11.00;;;;;;;-0.02;100.00;100346.69;4298751;33;20415;-74
2021/12/18 09:28:36;;;;;;;27.33;11.27;;;;;;;-0.34;100.00;100302.97;4299955;33;20058;-75
2021/12/18 09:31:03;;;;;;;31.42;11.80;;;;;;;0.01;100.00;100324.38;4300531;33;20358;-75
2021/12/18 09:33:30;;;;;;;27.33;9.85;;;;;;;-0.26;100.00;100275.75;4300840;33;20041;-76
2021/12/18 09:35:57;;;;;;;32.42;10.60;;;;;;;-0.28;100.00;100256.56;4311254;33;20033;-76
2021/12/18 09:38:23;;;;;;;22.33;10.07;;;;;;;0.01;100.00;100287.31;4299016;33;20025;-76
2021/12/18 09:40:50;;;;;;;32.25;10.80;;;;;;;0.19;100.00;100306.66;4299251;33;20041;-77
2021/12/18 09:43:17;;;;;;;28.55;9.77;;;;;;;-0.23;100.00;100254.28;4300518;33;20036;-77
2021/12/18 09:45:46;;;;;;;41.22;13.02;;;;;;;-0.32;100.00;100215.47;4299670;33;20345;-77
2021/12/18 09:48:12;;;;;;;38.17;12.07;;;;;;;-0.22;100.00;100240.09;4300326;33;20064;-77
2021/12/18 09:50:41;;;;;;;28.15;13.65;;;;;;;0.05;100.00;100293.94;4299723;33;20088;-77
2021/12/18 09:53:10;;;;;;;31.25;12.88;;;;;;;0.04;100.00;100281.72;4300130;33;20076;-77
2021/12/18 09:55:36;;;;;;;35.10;13.35;;;;;;;0.04;100.00;100294.94;4310953;33;20341;-77
2021/12/18 09:58:03;;;;;;;40.50;14.45;;;;;;;0.05;100.00;100262.16;4299926;33;20193;-76
2021/12/18 10:00:30;;;;;;;32.33;12.37;;;;;;;0.09;100.00;100263.53;4311310;33;20026;-77
2021/12/18 10:02:57;;;;;;;28.70;12.85;;;;;;;-0.03;100.00;100261.13;4299370;33;20518;-76
2021/12/18 10:05:31;;;;;;;25.30;11.68;;;;;;;-0.14;100.00;100274.56;4299684;33;20033;-75
2021/12/18 10:08:25;;;;;;;22.37;11.12;;;;;;;-0.09;100.00;100261.72;4302349;33;20039;-74
2021/12/18 10:11:09;;;;;;;26.40;12.23;;;;;;;-0.04;100.00;100248.84;4302044;33;20452;-76
2021/12/18 10:13:55;;;;;;;17.17;9.05;;;;;;;0.03;100.00;100243.78;4302759;33;20076;-76
2021/12/18 10:16:23;;;;;;;37.65;12.50;;;;;;;-0.02;100.00;100252.19;4301881;33;20055;-76
2021/12/18 10:18:50;;;;;;;34.58;11.27;;;;;;;0.02;100.00;100243.94;4302715;33;20029;-75
2021/12/18 10:21:23;;;;;;;42.28;14.90;;;;;;;-0.01;100.00;100232.66;4302349;33;20046;-76
2021/12/18 10:23:52;;;;;;;33.05;14.27;;;;;;;0.00;100.00;100233.50;4302448;33;20043;-76
2021/12/18 10:26:36;;;;;;;38.03;14.07;;;;;;;-0.05;100.00;100212.78;4301216;33;20102;-77
2021/12/18 10:29:23;;;;;;;38.53;14.77;;;;;;;0.10;100.00;100223.66;4314912;33;20359;-76
2021/12/18 10:31:50;;;;;;;54.35;17.98;;;;;;;0.07;100.00;100223.13;4302490;33;20047;-75
2021/12/18 10:34:21;;;;;;;42.65;15.73;;;;;;;-0.23;100.00;100161.63;4302162;33;20051;-76
2021/12/18 10:37:09;;;;;;;55.65;17.00;;;;;;;0.13;100.00;100211.94;4313850;33;20097;-78
2021/12/18 10:40:02;;;;;;;54.95;17.40;;;;;;;0.06;100.00;100232.06;4301845;33;20067;-77
2021/12/18 10:42:35;;;;;;;62.62;20.02;;;;;;;-0.23;100.00;100148.41;4289532;33;20435;-77
2021/12/18 10:45:27;;;;;;;60.50;17.23;;;;;;;0.13;100.00;100217.25;4301309;33;20037;-75
2021/12/18 10:48:08;;;;;;;64.07;19.98;;;;;;;-0.16;100.00;100164.50;4251403;33;20354;-75
2021/12/18 10:50:45;;;;;;;62.67;19.10;;;;;;;-0.11;100.00;100173.66;4255758;33;20030;-75
2021/12/18 10:53:18;;;;;;;71.20;19.67;;;;;;;0.30;100.00;100203.13;4233533;33;20080;-76
2021/12/18 10:55:57;;;;;;;69.10;19.17;;;;;;;0.44;100.00;100206.22;4231713;33;20048;-75
2021/12/18 10:58:25;;;;;;;62.00;21.30;;;;;;;0.53;100.00;100202.63;4235659;33;20022;-75
2021/12/18 11:01:13;;;;;;;57.95;20.83;;;;;;;0.54;100.00;100204.28;4245407;33;20426;-75
2021/12/18 11:03:47;;;;;;;79.40;21.58;;;;;;;0.56;100.00;100191.72;4245422;33;20023;-75
2021/12/18 11:06:24;;;;;;;66.55;19.70;;;;;;;0.51;100.00;100194.84;4233741;33;20042;-76
2021/12/18 11:09:06;;;;;;;66.45;20.02;;;;;;;-0.07;100.00;100103.53;4233255;33;20038;-76
2021/12/18 11:14:14;;;;;;;60.78;18.83;;;;;;;0.47;100.00;100176.75;4256927;33;20048;-75
2021/12/18 11:16:44;;;;;;;77.87;23.85;;;;;;;0.41;100.00;100193.25;4255382;33;20042;-75
2021/12/18 11:19:16;;;;;;;76.87;20.67;;;;;;;0.30;100.00;100186.37;4244526;33;20018;-75
2021/12/18 11:24:20;;;;;;;56.85;20.30;;;;;;;0.52;100.00;100158.56;4266611;33;20076;-75
2021/12/18 11:27:05;;;;;;;57.03;15.32;;;;;;;0.51;100.00;100162.19;4300135;33;20029;-75
2021/12/18 11:29:46;;;;;;;48.30;15.85;;;;;;;0.22;100.00;100126.22;4301494;33;20039;-76
2021/12/18 11:32:28;;;;;;;61.70;18.98;;;;;;;0.23;100.00;100111.19;4302320;33;20365;-76
2021/12/18 11:34:57;;;;;;;58.33;17.27;;;;;;;0.57;100.00;100153.59;4302029;33;20021;-76
2021/12/18 11:37:25;;;;;;;69.00;20.50;;;;;;;0.42;100.00;100131.34;4313370;33;20183;-75
2021/12/18 11:39:57;;;;;;;53.35;18.60;;;;;;;0.52;100.00;100132.88;4301153;33;20079;-76
2021/12/18 11:42:29;;;;;;;55.50;18.58;;;;;;;0.57;100.00;100135.06;4302265;33;20399;-76
2021/12/18 11:44:58;;;;;;;53.67;19.15;;;;;;;0.57;100.00;100119.16;4301687;33;20072;-76
2021/12/18 11:47:31;;;;;;;55.65;18.95;;;;;;;0.47;100.00;100098.06;4301993;33;20048;-76
2021/12/18 11:50:17;;;;;;;60.10;20.85;;;;;;;0.53;100.00;100113.34;4301439;33;20028;-76
2021/12/18 11:53:06;;;;;;;46.50;16.12;;;;;;;0.69;100.00;100132.97;4273857;33;20088;-76
2021/12/18 11:55:44;;;;;;;44.53;17.30;;;;;;;0.65;100.00;100158.94;4299847;33;20037;-76
2021/12/18 11:58:14;;;;;;;39.08;16.70;;;;;;;0.29;100.00;100084.91;4300098;33;20055;-76
2021/12/18 12:00:51;;;;;;;45.85;15.90;;;;;;;0.16;100.00;100050.03;4300499;33;20469;-75
2021/12/18 12:03:33;;;;;;;40.47;17.15;;;;;;;0.20;100.00;100085.84;4300758;33;20074;-75
2021/12/18 12:06:01;;;;;;;36.55;16.08;;;;;;;0.20;100.00;100069.94;4301361;33;20393;-75
2021/12/18 12:08:38;;;;;;;35.53;18.08;;;;;;;0.51;100.00;100114.47;4299687;33;20029;-75
2021/12/18 12:11:25;;;;;;;41.75;14.60;;;;;;;0.15;100.00;100061.63;4302061;33;20030;-75
2021/12/18 12:14:08;;;;;;;35.88;15.25;;;;;;;0.39;100.00;100126.34;4312308;33;20064;-75
2021/12/18 12:16:47;;;;;;;38.55;14.48;;;;;;;0.52;100.00;100130.22;4300011;33;20433;-75
2021/12/18 12:19:19;;;;;;;42.20;15.88;;;;;;;0.47;100.00;100107.84;4301290;33;20039;-76
2021/12/18 12:21:49;;;;;;;34.40;15.80;;;;;;;0.28;100.00;100067.34;4306135;33;20040;-75